Terminal Aerodrome Forecast
Issued by NWS Twin Cities, MN

Home | Current Version | Previous Version | Graphics & Text | Print | Product List | Glossary On
Versions: 1 2 3 4 5 6 7 8 9 10 11 12 13 14 15 16 17 18 19 20 21
000
FTUS43 KMPX 221100
TAFSTC
TAF
KSTC 221128Z 2212/2312 VRB02KT 6SM BR FEW002
      TEMPO 2212/2214 2SM BR BKN002
     FM221400 25007KT P6SM SKC
     FM230000 18004KT P6SM SKC=

USA.gov is the U.S. government's official web portal to all federal, state and local government web resources and services.